createdAt,value
2022-09-22T00:01:26.138Z,77243.56
2022-09-22T00:03:58.428Z,77241.66
2022-09-22T00:06:39.012Z,77245.50
2022-09-22T00:09:08.567Z,77257.06
2022-09-22T00:11:39.079Z,77255.16
2022-09-22T00:14:21.197Z,77257.06
2022-09-22T00:17:01.236Z,77260.94
2022-09-22T00:19:32.216Z,77257.06
2022-09-22T00:22:00.129Z,77262.84
2022-09-22T00:24:28.366Z,77262.84
2022-09-22T00:26:57.710Z,77264.78
2022-09-22T00:29:29.492Z,77264.78
2022-09-22T00:31:57.037Z,77272.50
2022-09-22T00:34:26.042Z,77276.34
2022-09-22T00:36:52.896Z,77284.06
2022-09-22T00:39:20.127Z,77280.19
2022-09-22T00:41:51.093Z,77282.13
2022-09-22T00:44:27.008Z,77284.06
2022-09-22T00:47:26.126Z,77284.06
2022-09-22T00:50:18.606Z,77278.28
2022-09-22T00:52:58.878Z,77276.34
2022-09-22T00:55:32.803Z,77276.34
2022-09-22T00:58:00.897Z,77276.34
2022-09-22T01:00:27.745Z,77276.34
2022-09-22T01:02:58.065Z,77278.28
2022-09-22T01:05:27.509Z,77287.91
2022-09-22T01:07:55.350Z,77287.91
2022-09-22T01:10:24.044Z,77297.53
2022-09-22T01:13:07.853Z,77295.63
2022-09-22T01:16:03.160Z,77285.97
2022-09-22T01:18:56.641Z,77295.63
2022-09-22T01:21:40.519Z,77287.91
2022-09-22T01:24:21.340Z,77274.41
2022-09-22T01:27:46.705Z,77276.34
2022-09-22T01:30:23.571Z,77268.63
2022-09-22T01:32:55.997Z,77276.34
2022-09-22T01:35:32.102Z,77278.28
2022-09-22T01:38:25.509Z,77280.19
2022-09-22T01:40:59.853Z,77280.19
2022-09-22T01:43:29.201Z,77284.06
2022-09-22T01:45:55.979Z,77287.91
2022-09-22T01:48:33.745Z,77297.53
2022-09-22T01:51:19.673Z,77299.47
2022-09-22T01:53:58.334Z,77284.06
2022-09-22T01:56:28.109Z,77295.63
2022-09-22T01:59:00.040Z,77307.19
2022-09-22T02:01:33.433Z,77311.03
2022-09-22T02:04:23.873Z,77299.47
2022-09-22T02:06:55.988Z,77303.34
2022-09-22T02:09:26.615Z,77303.34
2022-09-22T02:11:53.385Z,77303.34
2022-09-22T02:14:20.105Z,77299.47
2022-09-22T02:16:46.805Z,77299.47
2022-09-22T02:19:19.788Z,77291.75
2022-09-22T02:21:48.454Z,77287.91
2022-09-22T02:24:45.594Z,77291.75
2022-09-22T02:27:27.066Z,77280.19
2022-09-22T02:30:01.742Z,77289.84
2022-09-22T02:32:30.257Z,77295.63
2022-09-22T02:34:57.426Z,77282.13
2022-09-22T02:37:44.727Z,77282.13
2022-09-22T02:40:27.657Z,77287.91
2022-09-22T02:43:15.101Z,77280.19
2022-09-22T02:46:15.267Z,77274.41
2022-09-22T02:49:00.022Z,77264.78
2022-09-22T02:51:29.180Z,77259.00
2022-09-22T02:53:55.776Z,77270.56
2022-09-22T02:56:22.695Z,77272.50
2022-09-22T02:58:49.487Z,77272.50
2022-09-22T03:01:16.170Z,77272.50
2022-09-22T03:03:42.940Z,77268.63
2022-09-22T03:06:09.758Z,77268.63
2022-09-22T03:08:36.634Z,77266.72
2022-09-22T03:11:03.660Z,77262.84
2022-09-22T03:13:30.453Z,77264.78
2022-09-22T03:15:57.096Z,77264.78
2022-09-22T03:18:23.899Z,77264.78
2022-09-22T03:20:50.722Z,77257.06
2022-09-22T03:23:17.436Z,77264.78
2022-09-22T03:25:44.094Z,77266.72
2022-09-22T03:28:10.716Z,77259.00
2022-09-22T03:30:40.293Z,77266.72
2022-09-22T03:33:07.069Z,77266.72
2022-09-22T03:35:34.018Z,77270.56
2022-09-22T03:38:00.662Z,77276.34
2022-09-22T03:40:27.594Z,77274.41
2022-09-22T03:42:54.776Z,77276.34
2022-09-22T03:45:21.503Z,77274.41
2022-09-22T03:47:48.187Z,77276.34
2022-09-22T03:50:15.033Z,77282.13
2022-09-22T03:52:43.821Z,77287.91
2022-09-22T03:55:11.391Z,77287.91
2022-09-22T03:57:38.574Z,77287.91
2022-09-22T04:00:06.010Z,77285.97
2022-09-22T04:02:38.703Z,77287.91
2022-09-22T04:05:06.031Z,77293.69
2022-09-22T04:07:32.667Z,77295.63
2022-09-22T04:09:59.434Z,77280.19
2022-09-22T04:12:26.072Z,77274.41
2022-09-22T04:14:52.785Z,77276.34
2022-09-22T04:17:20.486Z,77276.34
2022-09-22T04:19:47.840Z,77272.50
2022-09-22T04:22:14.728Z,77276.34
2022-09-22T04:24:41.564Z,77282.13
2022-09-22T04:27:19.605Z,77291.75
2022-09-22T04:29:46.947Z,77303.34
2022-09-22T04:32:14.635Z,77311.03
2022-09-22T04:34:41.686Z,77322.59
2022-09-22T04:37:08.675Z,77322.59
2022-09-22T04:39:36.220Z,77326.47
2022-09-22T04:42:04.057Z,77307.19
2022-09-22T04:44:34.693Z,77312.97
2022-09-22T04:47:01.938Z,77307.19
2022-09-22T04:49:28.589Z,77311.03
2022-09-22T04:51:55.276Z,77307.19
2022-09-22T04:54:22.037Z,77311.03
2022-09-22T04:56:48.684Z,77318.75
2022-09-22T04:59:15.430Z,77334.16
2022-09-22T05:01:42.126Z,77341.88
2022-09-22T05:04:09.455Z,77307.19
2022-09-22T05:06:36.506Z,77153.00
2022-09-22T05:09:04.288Z,76975.69
2022-09-22T05:11:31.065Z,76798.38
2022-09-22T05:13:58.663Z,76678.91
2022-09-22T05:16:25.916Z,76561.34
2022-09-22T05:18:52.988Z,76412.97
2022-09-22T05:21:19.612Z,76332.03
2022-09-22T05:23:46.943Z,76241.47
2022-09-22T05:26:13.863Z,76224.13
2022-09-22T05:28:41.005Z,76349.38
2022-09-22T05:31:07.881Z,76332.03
2022-09-22T05:33:34.665Z,76360.94
2022-09-22T05:36:01.520Z,76147.06
2022-09-22T05:38:28.989Z,76029.53
2022-09-22T05:40:55.696Z,76139.34
2022-09-22T05:43:22.345Z,76231.84
2022-09-22T05:45:49.825Z,76201.00
2022-09-22T05:48:17.688Z,76339.75
2022-09-22T05:50:45.458Z,76262.66
2022-09-22T05:53:13.283Z,76139.34
2022-09-22T05:55:41.041Z,76141.28
2022-09-22T05:58:10.041Z,76254.97
2022-09-22T06:00:36.737Z,76245.34
2022-09-22T06:03:03.805Z,75992.94
2022-09-22T06:05:30.761Z,76143.22
2022-09-22T06:08:03.993Z,76158.63
2022-09-22T06:10:33.049Z,76150.91
2022-09-22T06:13:05.205Z,76070.00
2022-09-22T06:15:34.233Z,76068.06
2022-09-22T06:18:01.481Z,76100.81
2022-09-22T06:20:28.340Z,76019.91
2022-09-22T06:22:56.706Z,75969.81
2022-09-22T06:25:23.640Z,76064.22
2022-09-22T06:28:07.743Z,75965.94
2022-09-22T06:30:36.070Z,76048.81
2022-09-22T06:33:03.102Z,76123.94
2022-09-22T06:35:37.723Z,75992.94
2022-09-22T06:38:06.496Z,76091.19
2022-09-22T06:40:36.378Z,75954.38
2022-09-22T06:43:13.018Z,75867.69
2022-09-22T06:45:40.275Z,75931.28
2022-09-22T06:48:10.031Z,75908.16
2022-09-22T06:50:38.304Z,75754.03
2022-09-22T06:53:07.288Z,75819.53
2022-09-22T06:55:34.362Z,75698.16
2022-09-22T06:58:02.854Z,75673.09
2022-09-22T07:00:34.369Z,75740.53
2022-09-22T07:03:13.427Z,75721.28
2022-09-22T07:05:40.120Z,76131.66
2022-09-22T07:08:07.010Z,76274.22
2022-09-22T07:10:38.028Z,76335.91
2022-09-22T07:13:06.430Z,76364.81
2022-09-22T07:15:34.887Z,76412.97
2022-09-22T07:18:01.796Z,76411.03
2022-09-22T07:20:29.095Z,76422.59
2022-09-22T07:23:00.422Z,76459.22
2022-09-22T07:25:28.726Z,76474.63
2022-09-22T07:28:05.075Z,76470.78
2022-09-22T07:30:34.303Z,76476.56
2022-09-22T07:33:01.777Z,76466.94
2022-09-22T07:35:28.719Z,76482.34
2022-09-22T07:37:57.024Z,76513.16
2022-09-22T07:40:23.906Z,76486.19
2022-09-22T07:42:50.893Z,76486.19
2022-09-22T07:45:17.574Z,76466.94
2022-09-22T07:48:03.381Z,76468.84
2022-09-22T07:50:30.756Z,76463.06
2022-09-22T07:52:57.462Z,76503.53
2022-09-22T07:55:25.232Z,76501.63
2022-09-22T07:57:57.024Z,76499.69
2022-09-22T08:00:32.899Z,76522.81
2022-09-22T08:03:01.393Z,76559.41
2022-09-22T08:05:29.124Z,76555.56
2022-09-22T08:08:00.841Z,76544.00
2022-09-22T08:10:27.544Z,76549.78
2022-09-22T08:12:57.915Z,76520.88
2022-09-22T08:15:27.104Z,76470.78
2022-09-22T08:17:58.291Z,76439.94
2022-09-22T08:20:29.240Z,76378.28
2022-09-22T08:23:03.021Z,76393.69
2022-09-22T08:25:30.485Z,76326.25
2022-09-22T08:27:57.535Z,76330.13
2022-09-22T08:30:24.273Z,76283.88
2022-09-22T08:32:50.983Z,76305.06
2022-09-22T08:35:18.428Z,76253.03
2022-09-22T08:37:45.731Z,76139.34
2022-09-22T08:40:21.107Z,76183.69
2022-09-22T08:42:48.358Z,76054.59
2022-09-22T08:45:44.307Z,76100.81
2022-09-22T08:48:39.196Z,76135.50
2022-09-22T08:51:32.026Z,76152.84
2022-09-22T08:54:03.257Z,76091.19
2022-09-22T08:56:41.336Z,76035.31
2022-09-22T08:59:23.246Z,76035.31
2022-09-22T09:02:22.876Z,76023.75
2022-09-22T09:05:19.112Z,76052.66
2022-09-22T09:08:00.312Z,76058.44
2022-09-22T09:10:51.741Z,76089.25
2022-09-22T09:13:56.099Z,76096.97
2022-09-22T09:16:45.130Z,76033.38
2022-09-22T09:19:35.028Z,76048.81
2022-09-22T09:22:09.796Z,75992.94
2022-09-22T09:27:31.040Z,75925.50
2022-09-22T09:30:17.861Z,76016.03
2022-09-22T09:32:52.512Z,75983.28
2022-09-22T09:35:26.790Z,76048.81
2022-09-22T09:38:01.220Z,75975.59
2022-09-22T09:40:29.051Z,75929.34
2022-09-22T09:43:03.272Z,75871.53
2022-09-22T09:46:09.159Z,75877.31
2022-09-22T09:48:58.621Z,75917.78
2022-09-22T09:51:26.025Z,75898.53
2022-09-22T09:53:55.565Z,75823.38
2022-09-22T09:56:30.421Z,75792.56
2022-09-22T09:59:44.225Z,75904.28
2022-09-22T10:02:17.388Z,75873.47
2022-09-22T10:04:52.035Z,75836.88
2022-09-22T10:07:26.033Z,75885.03
2022-09-22T10:09:54.676Z,75792.56
2022-09-22T10:12:29.969Z,75904.28
2022-09-22T10:15:01.477Z,75871.53
2022-09-22T10:17:50.336Z,75781.00
2022-09-22T10:20:22.835Z,75825.31
2022-09-22T10:22:49.824Z,75877.31
2022-09-22T10:25:26.432Z,75923.56
2022-09-22T10:28:19.860Z,75969.81
2022-09-22T10:31:04.586Z,75979.44
2022-09-22T10:33:33.212Z,76006.41
2022-09-22T10:36:12.705Z,75937.06
2022-09-22T10:38:41.939Z,75796.41
2022-09-22T10:41:12.847Z,75730.91
2022-09-22T10:44:10.589Z,75715.50
2022-09-22T10:47:11.452Z,75831.09
2022-09-22T10:49:50.050Z,75946.69
2022-09-22T10:52:24.163Z,75900.44
2022-09-22T10:55:10.156Z,75915.84
2022-09-22T10:58:01.558Z,75842.66
2022-09-22T11:00:29.153Z,75831.09
2022-09-22T11:03:33.101Z,75800.25
2022-09-22T11:06:34.064Z,75775.22
2022-09-22T11:09:51.469Z,75846.50
2022-09-22T11:12:29.630Z,75850.34
2022-09-22T11:15:20.584Z,75888.88
2022-09-22T11:18:13.295Z,75942.84
2022-09-22T11:20:48.281Z,75827.22
2022-09-22T11:23:53.916Z,75777.13
2022-09-22T11:26:45.106Z,75755.94
2022-09-22T11:29:30.168Z,75723.19
2022-09-22T11:32:19.531Z,75675.03
2022-09-22T11:35:15.840Z,75767.50
2022-09-22T11:37:54.505Z,75846.50
2022-09-22T11:40:40.009Z,75834.94
2022-09-22T11:43:25.121Z,75811.81
2022-09-22T11:46:06.250Z,75784.84
2022-09-22T11:48:39.013Z,75763.66
2022-09-22T11:51:17.901Z,75757.88
2022-09-22T11:53:50.555Z,75750.16
2022-09-22T11:56:36.121Z,75773.28
2022-09-22T11:59:24.675Z,75763.66
2022-09-22T12:01:53.588Z,75777.13
2022-09-22T12:04:30.713Z,75742.47
2022-09-22T12:07:00.375Z,75646.13
2022-09-22T12:09:43.700Z,75686.59
2022-09-22T12:12:17.092Z,75700.09
2022-09-22T12:14:44.722Z,75711.63
2022-09-22T12:17:11.308Z,75730.91
2022-09-22T12:22:54.237Z,75707.78
2022-09-22T12:25:54.351Z,75663.47
2022-09-22T12:28:26.441Z,75642.28
2022-09-22T12:30:57.446Z,75603.75
2022-09-22T12:33:25.577Z,75609.53
2022-09-22T12:35:55.626Z,75588.34
2022-09-22T12:38:23.920Z,75623.03
2022-09-22T12:40:53.925Z,75719.34
2022-09-22T12:43:23.532Z,75973.66
2022-09-22T12:45:52.074Z,76133.56
2022-09-22T12:48:23.881Z,76208.72
2022-09-22T12:50:52.160Z,76262.66
2022-09-22T12:53:21.869Z,76355.16
2022-09-22T12:55:58.078Z,76389.84
2022-09-22T12:58:30.609Z,76420.69
2022-09-22T13:01:33.185Z,76422.59
2022-09-22T13:04:11.957Z,76430.31
2022-09-22T13:06:38.544Z,76395.63
2022-09-22T13:09:05.342Z,76422.59
2022-09-22T13:12:10.678Z,76378.28
2022-09-22T13:14:56.519Z,76353.25
2022-09-22T13:17:43.328Z,76305.06
2022-09-22T13:20:34.167Z,76262.66
2022-09-22T13:23:12.112Z,76243.41
2022-09-22T13:25:40.043Z,76220.28
2022-09-22T13:28:09.691Z,76189.44
2022-09-22T13:30:37.638Z,76172.13
2022-09-22T13:33:04.348Z,76150.91
2022-09-22T13:35:40.816Z,76131.66
2022-09-22T13:38:12.193Z,76093.13
2022-09-22T13:40:38.942Z,76073.84
2022-09-22T13:43:10.009Z,76054.59
2022-09-22T13:45:39.572Z,76048.81
2022-09-22T13:48:11.245Z,76035.31
2022-09-22T13:50:44.096Z,76029.53
2022-09-22T13:53:17.595Z,76046.88
2022-09-22T13:55:49.145Z,76043.03
2022-09-22T13:58:22.450Z,76035.31
2022-09-22T14:01:15.518Z,76035.31
2022-09-22T14:03:43.510Z,76023.75
2022-09-22T14:06:17.676Z,76043.03
2022-09-22T14:08:47.070Z,76043.03
2022-09-22T14:11:23.190Z,76050.72
2022-09-22T14:13:55.987Z,76035.31
2022-09-22T14:16:43.194Z,76060.38
2022-09-22T14:19:21.407Z,76054.59
2022-09-22T14:22:00.015Z,76062.28
2022-09-22T14:24:28.199Z,76052.66
2022-09-22T14:27:03.548Z,76054.59
2022-09-22T14:29:37.696Z,76058.44
2022-09-22T14:32:25.482Z,76054.59
2022-09-22T14:35:01.339Z,76066.13
2022-09-22T14:37:34.417Z,76077.69
2022-09-22T14:40:04.909Z,76066.13
2022-09-22T14:42:33.904Z,76071.91
2022-09-22T14:45:09.610Z,76064.22
2022-09-22T14:47:40.519Z,76050.72
2022-09-22T14:50:37.271Z,76073.84
2022-09-22T14:53:22.969Z,76077.69
2022-09-22T14:56:06.399Z,76081.56
2022-09-22T14:58:49.690Z,76083.47
2022-09-22T15:01:50.547Z,76093.13
2022-09-22T15:04:25.023Z,76125.88
2022-09-22T15:06:56.353Z,76131.66
2022-09-22T15:09:42.748Z,76122.00
2022-09-22T15:12:46.184Z,76129.72
2022-09-22T15:15:24.523Z,76147.06
2022-09-22T15:18:11.672Z,76150.91
2022-09-22T15:20:47.371Z,76166.34
2022-09-22T15:23:16.567Z,76183.69
2022-09-22T15:25:44.271Z,76185.59
2022-09-22T15:28:24.664Z,76185.59
2022-09-22T15:30:52.554Z,76185.59
2022-09-22T15:33:20.960Z,76185.59
2022-09-22T15:35:52.456Z,76185.59
2022-09-22T15:38:24.036Z,76185.59
2022-09-22T15:40:51.538Z,76189.44
2022-09-22T15:43:20.741Z,76197.16
2022-09-22T15:45:56.205Z,76199.09
2022-09-22T15:48:30.513Z,76208.72
2022-09-22T15:51:00.037Z,76212.56
2022-09-22T15:53:26.950Z,76228.00
2022-09-22T15:55:54.569Z,76249.19
2022-09-22T15:58:25.753Z,76270.38
2022-09-22T16:00:53.229Z,76293.50
2022-09-22T16:03:24.286Z,76324.34
2022-09-22T16:05:57.172Z,76328.19
2022-09-22T16:08:31.419Z,76343.59
2022-09-22T16:11:05.315Z,76364.81
2022-09-22T16:13:33.366Z,76374.44
2022-09-22T16:16:05.770Z,76386.00
2022-09-22T16:18:33.152Z,76393.69
2022-09-22T16:21:20.051Z,76405.25
2022-09-22T16:23:46.673Z,76412.97
2022-09-22T16:26:13.360Z,76422.59
2022-09-22T16:28:40.046Z,76434.16
2022-09-22T16:31:08.866Z,76447.66
2022-09-22T16:33:35.651Z,76451.50
2022-09-22T16:36:04.766Z,76468.84
2022-09-22T16:38:32.569Z,76474.63
2022-09-22T16:41:18.158Z,76488.13
2022-09-22T16:43:44.842Z,76505.47
2022-09-22T16:46:27.968Z,76520.88
2022-09-22T16:48:56.081Z,76524.72
2022-09-22T16:51:22.820Z,76544.00
2022-09-22T16:53:55.426Z,76557.50
2022-09-22T16:56:24.504Z,76559.41
2022-09-22T16:58:52.158Z,76574.84
2022-09-22T17:01:20.256Z,76588.31
2022-09-22T17:03:49.460Z,76601.81
2022-09-22T17:06:18.457Z,76613.38
2022-09-22T17:08:45.913Z,76624.94
2022-09-22T17:11:15.960Z,76630.72
2022-09-22T17:13:45.990Z,76640.34
2022-09-22T17:16:24.652Z,76642.28
2022-09-22T17:18:52.833Z,76655.78
2022-09-22T17:21:23.253Z,76663.47
2022-09-22T17:23:52.372Z,76667.34
2022-09-22T17:26:20.443Z,76673.13
2022-09-22T17:28:47.846Z,76686.59
2022-09-22T17:31:14.831Z,76682.75
2022-09-22T17:33:46.963Z,76690.47
2022-09-22T17:36:20.069Z,76698.16
2022-09-22T17:38:50.715Z,76698.16
2022-09-22T17:41:26.679Z,76715.50
2022-09-22T17:43:58.542Z,76729.00
2022-09-22T17:46:26.155Z,76742.50
2022-09-22T17:49:11.797Z,76744.41
2022-09-22T17:52:01.954Z,76759.84
2022-09-22T17:54:57.327Z,76779.09
2022-09-22T17:57:29.624Z,76786.81
2022-09-22T17:59:57.574Z,76796.44
2022-09-22T18:02:26.783Z,76806.09
2022-09-22T18:04:53.717Z,76815.72
2022-09-22T18:07:22.566Z,76823.44
2022-09-22T18:09:51.417Z,76835.00
2022-09-22T18:12:22.989Z,76846.56
2022-09-22T18:14:52.769Z,76858.13
2022-09-22T18:17:23.301Z,76867.75
2022-09-22T18:19:53.064Z,76875.47
2022-09-22T18:22:22.098Z,76875.47
2022-09-22T18:24:50.616Z,76898.59
2022-09-22T18:27:19.340Z,76904.38
2022-09-22T18:29:53.469Z,76914.00
2022-09-22T18:32:21.532Z,76923.66
2022-09-22T18:34:52.899Z,76929.44
2022-09-22T18:37:20.622Z,76925.56
2022-09-22T18:39:50.299Z,76937.13
2022-09-22T18:42:19.061Z,76941.00
2022-09-22T18:44:47.912Z,76944.84
2022-09-22T18:47:18.545Z,76952.56
2022-09-22T18:49:48.502Z,76956.41
2022-09-22T18:52:16.731Z,76962.19
2022-09-22T18:54:44.047Z,76971.81
2022-09-22T18:57:14.211Z,76971.81
2022-09-22T18:59:41.628Z,76977.59
2022-09-22T19:02:11.916Z,76979.53
2022-09-22T19:04:39.204Z,76987.25
2022-09-22T19:07:24.396Z,76987.25
2022-09-22T19:09:52.580Z,76983.38
2022-09-22T19:12:21.780Z,76973.75
2022-09-22T19:14:50.092Z,76983.38
2022-09-22T19:17:17.968Z,76983.38
2022-09-22T19:19:46.738Z,76983.38
2022-09-22T19:22:13.428Z,76985.31
2022-09-22T19:24:45.931Z,76994.97
2022-09-22T19:27:15.511Z,77000.75
2022-09-22T19:29:42.647Z,77002.66
2022-09-22T19:32:09.974Z,77002.66
2022-09-22T19:34:36.731Z,77010.38
2022-09-22T19:37:03.856Z,77006.53
2022-09-22T19:39:32.152Z,77023.88
2022-09-22T19:41:59.363Z,77041.22
2022-09-22T19:44:28.689Z,77060.47
2022-09-22T19:46:55.353Z,77075.91
2022-09-22T19:49:22.196Z,77095.19
2022-09-22T19:51:48.905Z,77102.88
2022-09-22T19:54:15.663Z,77104.81
2022-09-22T19:56:42.664Z,77106.75
2022-09-22T19:59:09.427Z,77112.53
2022-09-22T20:01:39.010Z,77126.00
2022-09-22T20:04:06.399Z,77114.44
2022-09-22T20:06:34.387Z,77126.00
2022-09-22T20:09:03.833Z,77131.78
2022-09-22T20:11:32.536Z,77141.44
2022-09-22T20:14:17.879Z,77151.06
2022-09-22T20:16:46.673Z,77168.41
2022-09-22T20:19:13.961Z,77179.97
2022-09-22T20:21:45.559Z,77179.97
2022-09-22T20:24:15.723Z,77187.69
2022-09-22T20:26:44.399Z,77183.84
2022-09-22T20:29:11.324Z,77187.69
2022-09-22T20:31:38.012Z,77187.69
2022-09-22T20:34:05.772Z,77187.69
2022-09-22T20:36:36.876Z,77199.25
2022-09-22T20:39:05.681Z,77199.25
2022-09-22T20:41:32.664Z,77201.19
2022-09-22T20:43:59.516Z,77212.75
2022-09-22T20:46:26.303Z,77214.66
2022-09-22T20:48:55.419Z,77226.22
2022-09-22T20:51:23.529Z,77237.78
2022-09-22T20:53:50.608Z,77245.50
2022-09-22T20:56:17.641Z,77249.38
2022-09-22T20:58:45.820Z,77249.38
2022-09-22T21:01:15.244Z,77253.22
2022-09-22T21:03:42.256Z,77239.72
2022-09-22T21:06:10.961Z,77220.44
2022-09-22T21:08:58.270Z,77222.38
2022-09-22T21:11:25.389Z,77220.44
2022-09-22T21:14:01.491Z,77218.53
2022-09-22T21:16:29.591Z,77197.31
2022-09-22T21:19:02.205Z,77187.69
2022-09-22T21:21:33.741Z,77162.63
2022-09-22T21:24:02.023Z,77168.41
2022-09-22T21:26:29.966Z,77156.84
2022-09-22T21:28:57.116Z,77143.34
2022-09-22T21:31:24.042Z,77141.44
2022-09-22T21:33:51.623Z,77158.78
2022-09-22T21:36:22.559Z,77179.97
2022-09-22T21:38:59.684Z,77210.81
2022-09-22T21:41:28.748Z,77232.00
2022-09-22T21:43:55.954Z,77243.56
2022-09-22T21:46:29.926Z,77255.16
2022-09-22T21:48:59.284Z,77268.63
2022-09-22T21:51:25.966Z,77274.41
2022-09-22T21:53:54.525Z,77287.91
2022-09-22T21:56:23.475Z,77287.91
2022-09-22T21:58:52.390Z,77295.63
2022-09-22T22:01:28.188Z,77291.75
2022-09-22T22:03:57.574Z,77287.91
2022-09-22T22:06:26.789Z,77287.91
2022-09-22T22:09:06.586Z,77295.63
2022-09-22T22:11:36.337Z,77297.53
2022-09-22T22:14:07.029Z,77297.53
2022-09-22T22:16:39.915Z,77287.91
2022-09-22T22:19:08.546Z,77280.19
2022-09-22T22:21:36.019Z,77249.38
2022-09-22T22:24:23.329Z,77247.44
2022-09-22T22:26:52.080Z,77220.44
2022-09-22T22:29:21.090Z,77214.66
2022-09-22T22:31:49.161Z,77214.66
2022-09-22T22:34:17.771Z,77226.22
2022-09-22T22:36:45.202Z,77237.78
2022-09-22T22:39:12.759Z,77230.09
2022-09-22T22:41:40.553Z,77230.09
2022-09-22T22:44:08.142Z,77218.53
2022-09-22T22:46:35.547Z,77226.22
2022-09-22T22:49:02.466Z,77222.38
2022-09-22T22:51:29.144Z,77222.38
2022-09-22T22:53:56.016Z,77226.22
2022-09-22T22:56:24.784Z,77230.09
2022-09-22T22:58:51.939Z,77235.88
2022-09-22T23:01:21.552Z,77235.88
2022-09-22T23:03:52.244Z,77241.66
2022-09-22T23:06:24.847Z,77251.28
2022-09-22T23:08:52.284Z,77260.94
2022-09-22T23:11:40.005Z,77266.72
2022-09-22T23:14:09.316Z,77287.91
2022-09-22T23:16:43.282Z,77307.19
2022-09-22T23:19:13.361Z,77322.59
2022-09-22T23:21:40.450Z,77326.47
2022-09-22T23:24:08.211Z,77336.09
2022-09-22T23:26:37.387Z,77334.16
2022-09-22T23:29:05.084Z,77326.47
2022-09-22T23:31:31.798Z,77332.25
2022-09-22T23:33:58.792Z,77345.72
2022-09-22T23:36:28.150Z,77355.38
2022-09-22T23:38:56.806Z,77353.44
2022-09-22T23:41:24.261Z,77349.59
2022-09-22T23:43:51.245Z,77351.50
2022-09-22T23:46:18.159Z,77357.28
2022-09-22T23:48:47.660Z,77357.28
2022-09-22T23:51:14.807Z,77359.22
2022-09-22T23:53:41.523Z,77363.09
2022-09-22T23:56:08.344Z,77372.72
2022-09-22T23:58:35.575Z,77376.56
